Terminal Aerodrome Forecast
Issued by NWS Upton, NY

Current Version | Previous Version | Text Only | Print | Product List | Glossary On
Versions: 1 2 3 4 5 6 7 8 9 10 11 12 13 14 15 16 17 18 19 20 21 22 23 24 25 26 27 28 29 30 31 32 33 34 35 36 37 38
271 FTUS41 KOKX 300136 AAA TAFJFK TAF AMD KJFK 300136Z 3002/0106 08017G27KT P6SM -RA BKN020 OVC090 FM300500 05020G28KT P6SM -RA OVC015 FM301000 05023G30KT P6SM -RA OVC015 FM301500 05023G32KT 3SM RA OVC010 FM302000 04020G27KT 2SM -RA BR BKN009=

USA.gov is the U.S. government's official web portal to all federal, state and local government web resources and services.